createdAt,value
2022-12-23T00:01:24.147Z,11.57
2022-12-23T00:03:51.607Z,12.50
2022-12-23T00:06:20.245Z,13.30
2022-12-23T00:08:47.028Z,20.88
2022-12-23T00:11:17.616Z,1.83
2022-12-23T00:14:02.929Z,9.90
2022-12-23T00:16:29.887Z,9.60
2022-12-23T00:18:56.691Z,5.28
2022-12-23T00:21:23.683Z,5.38
2022-12-23T00:23:51.458Z,2.08
2022-12-23T00:26:25.057Z,3.15
2022-12-23T00:28:52.668Z,2.60
2022-12-23T00:31:20.085Z,28.42
2022-12-23T00:33:49.452Z,6.57
2022-12-23T00:36:28.494Z,19.77
2022-12-23T00:39:16.058Z,6.05
2022-12-23T00:42:01.552Z,4.88
2022-12-23T00:44:28.811Z,0.63
2022-12-23T00:46:55.654Z,1.63
2022-12-23T00:49:40.978Z,4.18
2022-12-23T00:52:11.836Z,12.93
2022-12-23T00:54:38.918Z,1.95
2022-12-23T00:57:06.070Z,5.05
2022-12-23T00:59:33.898Z,2.88
2022-12-23T01:02:19.732Z,3.25
2022-12-23T01:05:05.555Z,1.15
2022-12-23T01:07:32.357Z,8.82
2022-12-23T01:09:59.160Z,1.70
2022-12-23T01:12:25.954Z,3.05
2022-12-23T01:14:52.846Z,1.40
2022-12-23T01:17:19.665Z,4.85
2022-12-23T01:19:46.533Z,4.45
2022-12-23T01:22:13.320Z,1.23
2022-12-23T01:24:40.150Z,3.47
2022-12-23T01:27:06.995Z,1.67
2022-12-23T01:29:34.176Z,1.70
2022-12-23T01:32:01.038Z,3.15
2022-12-23T01:34:36.065Z,2.70
2022-12-23T01:37:05.216Z,5.57
2022-12-23T01:39:32.084Z,3.42
2022-12-23T01:42:25.372Z,18.83
2022-12-23T01:44:56.676Z,2.58
2022-12-23T01:47:40.269Z,3.47
2022-12-23T01:50:12.745Z,0.95
2022-12-23T01:52:52.016Z,8.68
2022-12-23T01:55:23.978Z,4.57
2022-12-23T01:57:52.715Z,3.22
2022-12-23T02:00:57.865Z,2.10
2022-12-23T02:03:43.012Z,8.93
2022-12-23T02:06:41.046Z,7.47
2022-12-23T02:09:19.933Z,6.15
2022-12-23T02:12:05.268Z,4.72
2022-12-23T02:14:57.274Z,4.88
2022-12-23T02:17:42.801Z,6.57
2022-12-23T02:20:42.835Z,5.47
2022-12-23T02:23:37.139Z,4.18
2022-12-23T02:26:55.342Z,4.55
2022-12-23T02:29:59.495Z,4.07
2022-12-23T02:32:50.400Z,5.10
2022-12-23T02:35:29.251Z,6.57
2022-12-23T02:38:14.996Z,6.30
2022-12-23T02:41:00.483Z,2.95
2022-12-23T02:43:47.000Z,3.42
2022-12-23T02:46:19.680Z,3.90
2022-12-23T02:48:46.486Z,5.68
2022-12-23T02:51:15.587Z,4.03
2022-12-23T02:53:56.296Z,1.05
2022-12-23T02:56:26.908Z,4.60
2022-12-23T02:58:58.490Z,5.22
2022-12-23T03:01:28.091Z,12.50
2022-12-23T03:03:55.037Z,9.57
2022-12-23T03:06:26.299Z,1.13
2022-12-23T03:08:57.498Z,1.85
2022-12-23T03:11:47.943Z,1.35
2022-12-23T03:14:33.358Z,4.38
2022-12-23T03:17:09.185Z,0.70
2022-12-23T03:19:58.160Z,0.85
2022-12-23T03:22:34.724Z,0.93
2022-12-23T03:25:24.557Z,8.00
2022-12-23T03:28:16.217Z,2.20
2022-12-23T03:30:46.519Z,2.53
2022-12-23T03:33:27.792Z,3.08
2022-12-23T03:36:03.775Z,7.85
2022-12-23T03:38:33.743Z,0.20
2022-12-23T03:41:06.800Z,0.50
2022-12-23T03:43:48.349Z,2.13
2022-12-23T03:46:24.823Z,2.25
2022-12-23T03:49:00.797Z,3.72
2022-12-23T03:51:32.863Z,2.05
2022-12-23T03:54:03.768Z,0.90
2022-12-23T03:56:43.141Z,1.48
2022-12-23T03:59:23.471Z,1.70
2022-12-23T04:02:08.814Z,1.33
2022-12-23T04:04:57.805Z,4.93
2022-12-23T04:08:19.873Z,4.30
2022-12-23T04:10:47.072Z,5.70
2022-12-23T04:13:13.982Z,1.15
2022-12-23T04:15:42.055Z,2.92
2022-12-23T04:18:10.845Z,5.03
2022-12-23T04:20:37.936Z,4.28
2022-12-23T04:23:05.409Z,3.45
2022-12-23T04:25:32.160Z,3.10
2022-12-23T04:27:59.096Z,1.00
2022-12-23T04:30:31.553Z,5.55
2022-12-23T04:33:00.800Z,2.40
2022-12-23T04:35:27.660Z,0.40
2022-12-23T04:37:54.366Z,0.35
2022-12-23T04:40:22.163Z,0.50
2022-12-23T04:42:48.946Z,2.80
2022-12-23T04:45:15.832Z,0.50
2022-12-23T04:47:42.703Z,0.73
2022-12-23T04:50:14.806Z,2.40
2022-12-23T04:52:42.631Z,2.15
2022-12-23T04:55:10.190Z,2.38
2022-12-23T04:57:36.933Z,2.15
2022-12-23T05:00:05.343Z,2.53
2022-12-23T05:02:32.272Z,2.13
2022-12-23T05:04:59.281Z,6.88
2022-12-23T05:07:26.060Z,8.48
2022-12-23T05:09:52.968Z,4.38
2022-12-23T05:12:19.660Z,4.85
2022-12-23T05:14:46.451Z,1.23
2022-12-23T05:17:13.385Z,0.88
2022-12-23T05:19:40.193Z,2.08
2022-12-23T05:22:07.191Z,4.43
2022-12-23T05:24:34.019Z,2.63
2022-12-23T05:27:00.892Z,7.60
2022-12-23T05:29:28.183Z,3.40
2022-12-23T05:31:55.240Z,3.85
2022-12-23T05:34:22.225Z,1.98
2022-12-23T05:36:48.976Z,3.58
2022-12-23T05:39:15.865Z,5.28
2022-12-23T05:41:42.819Z,1.00
2022-12-23T05:44:09.936Z,3.03
2022-12-23T05:46:36.849Z,3.70
2022-12-23T05:49:03.726Z,2.35
2022-12-23T05:51:30.687Z,3.50
2022-12-23T05:53:57.475Z,1.63
2022-12-23T05:56:24.305Z,2.88
2022-12-23T05:58:51.156Z,2.83
2022-12-23T06:01:18.808Z,9.32
2022-12-23T06:03:45.635Z,1.45
2022-12-23T06:06:12.637Z,7.63
2022-12-23T06:08:39.350Z,7.88
2022-12-23T06:11:06.379Z,14.10
2022-12-23T06:13:33.131Z,5.80
2022-12-23T06:15:59.896Z,5.18
2022-12-23T06:18:26.767Z,6.32
2022-12-23T06:20:53.425Z,3.65
2022-12-23T06:23:20.319Z,9.23
2022-12-23T06:25:47.096Z,8.77
2022-12-23T06:28:13.930Z,7.93
2022-12-23T06:30:40.664Z,2.95
2022-12-23T06:33:07.601Z,4.97
2022-12-23T06:35:34.425Z,5.28
2022-12-23T06:38:02.200Z,1.25
2022-12-23T06:40:29.743Z,6.30
2022-12-23T06:42:56.516Z,6.50
2022-12-23T06:45:23.303Z,1.75
2022-12-23T06:47:50.071Z,5.43
2022-12-23T06:50:16.877Z,1.60
2022-12-23T06:52:43.697Z,2.95
2022-12-23T06:55:10.561Z,1.08
2022-12-23T06:57:37.333Z,5.80
2022-12-23T07:00:08.449Z,3.92
2022-12-23T07:02:35.412Z,3.33
2022-12-23T07:05:02.223Z,4.32
2022-12-23T07:07:29.199Z,8.48
2022-12-23T07:09:56.033Z,7.25
2022-12-23T07:12:22.885Z,15.82
2022-12-23T07:14:49.629Z,9.25
2022-12-23T07:17:16.735Z,5.82
2022-12-23T07:19:43.685Z,2.75
2022-12-23T07:22:10.661Z,9.73
2022-12-23T07:24:37.877Z,1.13
2022-12-23T07:27:05.248Z,1.60
2022-12-23T07:29:31.986Z,0.17
2022-12-23T07:31:59.089Z,3.45
2022-12-23T07:34:25.813Z,1.98
2022-12-23T07:36:52.699Z,2.42
2022-12-23T07:39:20.590Z,5.80
2022-12-23T07:41:48.342Z,2.70
2022-12-23T07:44:15.287Z,0.75
2022-12-23T07:46:42.553Z,1.05
2022-12-23T07:49:09.689Z,10.68
2022-12-23T07:51:36.403Z,1.40
2022-12-23T07:54:03.480Z,6.20
2022-12-23T07:56:30.148Z,2.17
2022-12-23T07:58:56.979Z,3.65
2022-12-23T08:01:23.937Z,1.52
2022-12-23T08:03:50.797Z,2.65
2022-12-23T08:06:17.934Z,1.02
2022-12-23T08:08:46.920Z,16.00
2022-12-23T08:11:16.078Z,4.18
2022-12-23T08:13:45.292Z,3.97
2022-12-23T08:16:12.708Z,3.00
2022-12-23T08:18:41.532Z,7.18
2022-12-23T08:21:14.679Z,4.90
2022-12-23T08:23:42.175Z,3.95
2022-12-23T08:26:14.525Z,1.42
2022-12-23T08:28:43.055Z,3.85
2022-12-23T08:31:11.279Z,3.60
2022-12-23T08:33:39.285Z,2.83
2022-12-23T08:36:08.936Z,5.82
2022-12-23T08:38:36.487Z,1.60
2022-12-23T08:41:04.110Z,2.63
2022-12-23T08:43:35.842Z,1.70
2022-12-23T08:46:03.240Z,3.00
2022-12-23T08:48:30.139Z,4.60
2022-12-23T08:50:57.347Z,3.43
2022-12-23T08:53:24.104Z,10.50
2022-12-23T08:55:52.027Z,2.80
2022-12-23T08:58:18.810Z,5.43
2022-12-23T09:00:45.779Z,5.57
2022-12-23T09:03:12.663Z,4.83
2022-12-23T09:05:41.519Z,10.13
2022-12-23T09:08:08.984Z,9.87
2022-12-23T09:10:44.374Z,3.93
2022-12-23T09:13:17.920Z,8.73
2022-12-23T09:15:49.438Z,4.13
2022-12-23T09:18:16.158Z,5.40
2022-12-23T09:20:43.992Z,13.73
2022-12-23T09:23:10.709Z,2.07
2022-12-23T09:25:37.736Z,4.20
2022-12-23T09:28:06.701Z,7.53
2022-12-23T09:30:33.623Z,5.33
2022-12-23T09:33:00.351Z,3.27
2022-12-23T09:35:27.275Z,3.57
2022-12-23T09:37:54.043Z,6.03
2022-12-23T09:40:22.505Z,4.37
2022-12-23T09:43:15.555Z,3.43
2022-12-23T09:46:21.751Z,4.37
2022-12-23T09:49:13.457Z,4.27
2022-12-23T09:51:40.409Z,2.87
2022-12-23T09:54:19.770Z,5.07
2022-12-23T09:57:00.515Z,5.13
2022-12-23T09:59:45.602Z,3.83
2022-12-23T10:02:46.222Z,19.77
2022-12-23T10:05:15.933Z,5.00
2022-12-23T10:07:50.075Z,8.63
2022-12-23T10:10:38.938Z,5.43
2022-12-23T10:13:11.471Z,3.43
2022-12-23T10:15:44.931Z,2.30
2022-12-23T10:18:34.628Z,5.77
2022-12-23T10:21:14.673Z,4.67
2022-12-23T10:23:44.441Z,13.37
2022-12-23T10:26:22.040Z,3.97
2022-12-23T10:28:50.963Z,11.27
2022-12-23T10:31:39.831Z,2.37
2022-12-23T10:34:33.442Z,2.80
2022-12-23T10:37:17.724Z,2.03
2022-12-23T10:39:56.652Z,2.77
2022-12-23T10:42:36.333Z,3.43
2022-12-23T10:45:10.179Z,5.23
2022-12-23T10:48:02.026Z,5.00
2022-12-23T10:50:34.421Z,5.30
2022-12-23T10:53:04.804Z,4.03
2022-12-23T10:55:35.840Z,4.43
2022-12-23T10:58:13.453Z,5.10
2022-12-23T11:00:45.574Z,4.37
2022-12-23T11:03:27.520Z,11.03
2022-12-23T11:05:56.283Z,5.43
2022-12-23T11:08:26.114Z,2.63
2022-12-23T11:10:54.997Z,2.27
2022-12-23T11:13:43.361Z,4.63
2022-12-23T11:16:28.418Z,3.60
2022-12-23T11:19:15.671Z,4.77
2022-12-23T11:21:55.597Z,3.20
2022-12-23T11:24:24.155Z,6.30
2022-12-23T11:27:06.301Z,6.90
2022-12-23T11:29:43.693Z,11.97
2022-12-23T11:32:26.495Z,7.60
2022-12-23T11:34:55.893Z,4.03
2022-12-23T11:37:42.733Z,3.53
2022-12-23T11:40:32.758Z,1.70
2022-12-23T11:43:02.151Z,5.40
2022-12-23T11:45:33.209Z,4.27
2022-12-23T11:48:00.563Z,3.43
2022-12-23T11:50:28.971Z,2.63
2022-12-23T11:53:03.763Z,4.73
2022-12-23T11:55:34.746Z,3.27
2022-12-23T11:58:02.998Z,7.07
2022-12-23T12:00:41.092Z,15.10
2022-12-23T12:03:17.964Z,6.43
2022-12-23T12:05:51.592Z,3.43
2022-12-23T12:08:27.319Z,8.57
2022-12-23T12:11:02.798Z,6.03
2022-12-23T12:13:35.750Z,6.37
2022-12-23T12:16:11.792Z,2.63
2022-12-23T12:18:41.997Z,20.77
2022-12-23T12:21:16.245Z,5.17
2022-12-23T12:23:48.615Z,7.07
2022-12-23T12:26:29.462Z,12.17
2022-12-23T12:29:20.781Z,2.67
2022-12-23T12:31:57.434Z,8.13
2022-12-23T12:34:57.941Z,4.33
2022-12-23T12:37:43.678Z,5.67
2022-12-23T12:40:37.706Z,5.43
2022-12-23T12:43:14.775Z,4.07
2022-12-23T12:46:04.771Z,3.80
2022-12-23T12:48:53.063Z,3.67
2022-12-23T12:51:38.892Z,3.83
2022-12-23T12:54:25.396Z,5.23
2022-12-23T12:56:57.027Z,16.80
2022-12-23T12:59:31.230Z,7.60
2022-12-23T13:02:26.830Z,15.43
2022-12-23T13:05:08.935Z,6.47
2022-12-23T13:07:50.488Z,4.47
2022-12-23T13:10:36.187Z,5.53
2022-12-23T13:13:32.465Z,10.73
2022-12-23T13:16:14.213Z,9.80
2022-12-23T13:18:54.971Z,8.83
2022-12-23T13:21:42.436Z,4.50
2022-12-23T13:24:22.366Z,4.40
2022-12-23T13:27:07.877Z,6.33
2022-12-23T13:29:45.034Z,3.90
2022-12-23T13:32:44.071Z,5.00
2022-12-23T13:35:35.625Z,5.70
2022-12-23T13:38:24.319Z,28.17
2022-12-23T13:41:19.107Z,10.47
2022-12-23T13:43:54.856Z,4.00
2022-12-23T13:46:44.331Z,7.43
2022-12-23T13:49:26.301Z,5.07
2022-12-23T13:52:15.693Z,6.07
2022-12-23T13:54:51.421Z,3.70
2022-12-23T13:57:33.552Z,2.80
2022-12-23T14:00:24.861Z,2.27
2022-12-23T14:02:57.859Z,2.33
2022-12-23T14:05:27.716Z,1.63
2022-12-23T14:07:54.850Z,4.50
2022-12-23T14:10:24.289Z,5.27
2022-12-23T14:12:53.183Z,4.40
2022-12-23T14:15:48.872Z,7.30
2022-12-23T14:18:35.188Z,1.80
2022-12-23T14:21:29.352Z,4.43
2022-12-23T14:24:26.341Z,4.23
2022-12-23T14:27:18.077Z,7.00
2022-12-23T14:29:45.770Z,2.07
2022-12-23T14:32:22.035Z,3.17
2022-12-23T14:35:17.049Z,4.87
2022-12-23T14:38:15.798Z,2.63
2022-12-23T14:40:42.777Z,3.47
2022-12-23T14:43:27.727Z,3.40
2022-12-23T14:46:02.394Z,5.70
2022-12-23T14:48:47.963Z,5.13
2022-12-23T14:51:14.773Z,11.63
2022-12-23T14:54:00.113Z,4.93
2022-12-23T14:56:39.165Z,7.83
2022-12-23T14:59:31.849Z,8.33
2022-12-23T15:02:18.038Z,7.40
2022-12-23T15:04:55.479Z,13.33
2022-12-23T15:07:25.444Z,14.83
2022-12-23T15:10:01.059Z,13.07
2022-12-23T15:12:54.069Z,31.37
2022-12-23T15:15:24.958Z,9.20
2022-12-23T15:18:01.683Z,3.47
2022-12-23T15:20:28.478Z,6.53
2022-12-23T15:23:00.421Z,13.83
2022-12-23T15:25:35.118Z,11.40
2022-12-23T15:28:03.373Z,13.77
2022-12-23T15:30:37.332Z,4.40
2022-12-23T15:33:27.780Z,5.43
2022-12-23T15:35:55.474Z,3.73
2022-12-23T15:38:31.879Z,3.70
2022-12-23T15:41:05.499Z,8.20
2022-12-23T15:43:33.029Z,4.83
2022-12-23T15:46:23.426Z,2.70
2022-12-23T15:48:54.439Z,3.77
2022-12-23T15:51:57.556Z,10.97
2022-12-23T15:54:36.861Z,10.23
2022-12-23T15:57:04.788Z,24.33
2022-12-23T15:59:38.417Z,4.47
2022-12-23T16:05:38.323Z,2.37
2022-12-23T16:08:28.683Z,3.27
2022-12-23T16:11:16.293Z,4.13
2022-12-23T16:13:58.416Z,4.93
2022-12-23T16:16:38.972Z,5.67
2022-12-23T16:19:28.119Z,3.93
2022-12-23T16:21:55.100Z,4.73
2022-12-23T16:24:21.844Z,1.93
2022-12-23T16:26:48.735Z,3.20
2022-12-23T16:29:15.636Z,17.80
2022-12-23T16:31:51.112Z,5.40
2022-12-23T16:34:22.801Z,8.83
2022-12-23T16:36:49.485Z,6.80
2022-12-23T16:39:24.525Z,47.27
2022-12-23T16:41:51.571Z,21.03
2022-12-23T16:44:18.328Z,10.67
2022-12-23T16:46:48.753Z,13.07
2022-12-23T16:49:21.537Z,8.70
2022-12-23T16:51:48.523Z,8.03
2022-12-23T16:54:18.521Z,9.50
2022-12-23T16:56:50.095Z,24.70
2022-12-23T16:59:17.372Z,139.47
2022-12-23T17:01:49.030Z,219.07
2022-12-23T17:04:16.078Z,637.17
2022-12-23T17:06:43.558Z,686.43
2022-12-23T17:09:11.503Z,215.60
2022-12-23T17:11:46.378Z,47.30
2022-12-23T17:14:22.472Z,14.60
2022-12-23T17:16:50.154Z,13.73
2022-12-23T17:19:23.378Z,5.37
2022-12-23T17:21:59.517Z,8.23
2022-12-23T17:24:27.349Z,14.77
2022-12-23T17:26:56.882Z,7.15
2022-12-23T17:29:24.335Z,8.33
2022-12-23T17:31:51.863Z,10.23
2022-12-23T17:34:24.078Z,8.40
2022-12-23T17:36:51.621Z,11.57
2022-12-23T17:39:20.433Z,15.75
2022-12-23T17:41:49.095Z,10.98
2022-12-23T17:44:18.429Z,17.77
2022-12-23T17:46:47.101Z,4.63
2022-12-23T17:49:21.619Z,7.40
2022-12-23T17:51:49.773Z,8.43
2022-12-23T17:54:24.852Z,3.63
2022-12-23T17:56:52.914Z,11.55
2022-12-23T17:59:20.246Z,10.20
2022-12-23T18:01:47.109Z,3.38
2022-12-23T18:04:14.195Z,3.80
2022-12-23T18:06:41.944Z,6.72
2022-12-23T18:09:08.973Z,5.25
2022-12-23T18:11:42.047Z,4.43
2022-12-23T18:14:28.113Z,3.00
2022-12-23T18:16:55.272Z,8.50
2022-12-23T18:19:22.184Z,5.85
2022-12-23T18:21:49.640Z,3.83
2022-12-23T18:24:16.524Z,9.13
2022-12-23T18:26:44.245Z,2.17
2022-12-23T18:29:12.013Z,6.55
2022-12-23T18:31:50.557Z,4.60
2022-12-23T18:34:18.581Z,3.20
2022-12-23T18:36:45.685Z,4.85
2022-12-23T18:39:12.907Z,3.10
2022-12-23T18:41:41.346Z,7.25
2022-12-23T18:44:21.564Z,3.88
2022-12-23T18:46:49.674Z,2.22
2022-12-23T18:49:16.570Z,4.93
2022-12-23T18:51:43.418Z,11.20
2022-12-23T18:54:19.125Z,5.35
2022-12-23T18:56:49.354Z,9.88
2022-12-23T18:59:22.795Z,2.80
2022-12-23T19:01:56.574Z,3.38
2022-12-23T19:04:25.475Z,4.00
2022-12-23T19:06:52.584Z,5.78
2022-12-23T19:09:23.133Z,7.13
2022-12-23T19:11:52.931Z,3.25
2022-12-23T19:14:19.684Z,3.45
2022-12-23T19:16:51.586Z,9.43
2022-12-23T19:19:20.347Z,11.13
2022-12-23T19:21:47.043Z,5.47
2022-12-23T19:24:14.048Z,3.08
2022-12-23T19:26:40.755Z,4.15
2022-12-23T19:29:08.740Z,3.38
2022-12-23T19:31:35.542Z,7.25
2022-12-23T19:34:02.500Z,5.45
2022-12-23T19:36:29.578Z,6.70
2022-12-23T19:38:57.382Z,4.35
2022-12-23T19:41:25.026Z,4.88
2022-12-23T19:43:51.710Z,7.10
2022-12-23T19:46:18.571Z,3.80
2022-12-23T19:48:51.546Z,42.10
2022-12-23T19:51:18.438Z,6.28
2022-12-23T19:53:46.116Z,4.65
2022-12-23T19:56:15.820Z,2.10
2022-12-23T19:58:44.082Z,5.95
2022-12-23T20:01:14.230Z,3.78
2022-12-23T20:03:42.320Z,5.28
2022-12-23T20:06:15.010Z,10.13
2022-12-23T20:08:43.670Z,2.17
2022-12-23T20:11:14.301Z,5.05
2022-12-23T20:13:41.253Z,4.50
2022-12-23T20:16:08.751Z,7.13
2022-12-23T20:18:36.034Z,5.70
2022-12-23T20:21:03.084Z,2.67
2022-12-23T20:23:31.338Z,9.82
2022-12-23T20:25:58.075Z,4.30
2022-12-23T20:28:24.989Z,3.60
2022-12-23T20:31:04.588Z,12.30
2022-12-23T20:33:31.533Z,3.70
2022-12-23T20:35:58.446Z,4.38
2022-12-23T20:38:25.407Z,5.93
2022-12-23T20:40:52.145Z,6.97
2022-12-23T20:43:19.094Z,2.92
2022-12-23T20:45:46.351Z,6.90
2022-12-23T20:48:13.143Z,2.90
2022-12-23T20:50:41.464Z,7.10
2022-12-23T20:53:09.027Z,6.60
2022-12-23T20:55:36.101Z,2.63
2022-12-23T20:58:22.874Z,5.50
2022-12-23T21:00:50.338Z,2.53
2022-12-23T21:03:17.254Z,6.70
2022-12-23T21:05:44.150Z,15.95
2022-12-23T21:08:11.118Z,13.60
2022-12-23T21:10:39.480Z,2.35
2022-12-23T21:13:06.402Z,2.47
2022-12-23T21:15:33.201Z,3.15
2022-12-23T21:17:59.966Z,4.88
2022-12-23T21:20:26.787Z,6.35
2022-12-23T21:22:53.559Z,8.07
2022-12-23T21:25:20.325Z,10.18
2022-12-23T21:27:47.353Z,4.65
2022-12-23T21:30:14.311Z,3.25
2022-12-23T21:32:41.148Z,26.05
2022-12-23T21:35:08.551Z,0.80
2022-12-23T21:37:35.619Z,17.65
2022-12-23T21:40:02.343Z,7.25
2022-12-23T21:42:29.237Z,5.70
2022-12-23T21:44:56.160Z,2.42
2022-12-23T21:47:23.038Z,1.75
2022-12-23T21:49:49.746Z,2.13
2022-12-23T21:52:16.499Z,2.90
2022-12-23T21:54:43.375Z,2.55
2022-12-23T21:57:10.189Z,4.90
2022-12-23T21:59:36.956Z,5.15
2022-12-23T22:02:04.464Z,5.03
2022-12-23T22:04:31.240Z,3.85
2022-12-23T22:06:58.183Z,5.47
2022-12-23T22:09:25.048Z,2.72
2022-12-23T22:11:51.894Z,1.38
2022-12-23T22:14:19.784Z,9.55
2022-12-23T22:16:46.735Z,3.35
2022-12-23T22:19:17.969Z,3.28
2022-12-23T22:21:44.805Z,1.83
2022-12-23T22:24:12.622Z,5.93
2022-12-23T22:26:39.879Z,0.95
2022-12-23T22:29:07.244Z,0.70
2022-12-23T22:31:44.929Z,3.00
2022-12-23T22:34:17.335Z,3.33
2022-12-23T22:36:44.842Z,4.70
2022-12-23T22:39:20.043Z,1.45
2022-12-23T22:41:49.742Z,5.40
2022-12-23T22:44:16.502Z,4.70
2022-12-23T22:46:43.502Z,1.38
2022-12-23T22:49:14.626Z,3.00
2022-12-23T22:51:42.534Z,0.55
2022-12-23T22:54:10.298Z,2.70
2022-12-23T22:56:37.169Z,0.73
2022-12-23T22:59:04.936Z,21.08
2022-12-23T23:01:35.383Z,2.85
2022-12-23T23:04:03.743Z,2.55
2022-12-23T23:06:38.420Z,1.67
2022-12-23T23:09:07.561Z,3.00
2022-12-23T23:11:34.672Z,6.45
2022-12-23T23:14:01.829Z,4.75
2022-12-23T23:16:28.662Z,4.75
2022-12-23T23:18:55.917Z,5.68
2022-12-23T23:21:22.704Z,2.90
2022-12-23T23:23:49.962Z,6.18
2022-12-23T23:26:17.825Z,3.63
2022-12-23T23:28:45.330Z,3.03
2022-12-23T23:33:59.601Z,9.82
2022-12-23T23:36:26.581Z,3.45
2022-12-23T23:38:53.544Z,1.80
2022-12-23T23:41:23.357Z,2.42
2022-12-23T23:43:51.973Z,1.75
2022-12-23T23:46:19.088Z,0.85
2022-12-23T23:48:46.067Z,2.33
2022-12-23T23:51:12.977Z,3.67
2022-12-23T23:53:40.508Z,6.30
2022-12-23T23:56:08.464Z,2.85
2022-12-23T23:58:37.181Z,2.30
